sensor_id;sensor_type;location;lat;lon;timestamp;pressure;altitude;pressure_sealevel;temperature;humidity
24230;BME280;12362;50.004;8.006;2023-03-31T00:01:30;99851.13;;;11.38;100.00
24230;BME280;12362;50.004;8.006;2023-03-31T00:03:58;99847.78;;;11.36;100.00
24230;BME280;12362;50.004;8.006;2023-03-31T00:06:32;99834.97;;;11.33;100.00
24230;BME280;12362;50.004;8.006;2023-03-31T00:09:07;99843.63;;;11.20;100.00
24230;BME280;12362;50.004;8.006;2023-03-31T00:11:33;99830.97;;;11.28;100.00
24230;BME280;12362;50.004;8.006;2023-03-31T00:13:59;99817.91;;;11.29;100.00
24230;BME280;12362;50.004;8.006;2023-03-31T00:16:24;99818.00;;;11.28;100.00
24230;BME280;12362;50.004;8.006;2023-03-31T00:18:51;99807.81;;;11.25;100.00
24230;BME280;12362;50.004;8.006;2023-03-31T00:21:19;99804.47;;;11.23;100.00
24230;BME280;12362;50.004;8.006;2023-03-31T00:24:09;99812.06;;;11.12;100.00
24230;BME280;12362;50.004;8.006;2023-03-31T00:26:35;99813.16;;;11.08;100.00
24230;BME280;12362;50.004;8.006;2023-03-31T00:29:03;99810.66;;;11.06;100.00
24230;BME280;12362;50.004;8.006;2023-03-31T00:31:29;99807.78;;;10.97;100.00
24230;BME280;12362;50.004;8.006;2023-03-31T00:33:55;99794.16;;;10.93;100.00
24230;BME280;12362;50.004;8.006;2023-03-31T00:36:22;99799.88;;;10.84;100.00
24230;BME280;12362;50.004;8.006;2023-03-31T00:38:56;99792.06;;;10.84;100.00
24230;BME280;12362;50.004;8.006;2023-03-31T00:41:26;99775.19;;;10.78;100.00
24230;BME280;12362;50.004;8.006;2023-03-31T00:44:20;99786.97;;;10.69;100.00
24230;BME280;12362;50.004;8.006;2023-03-31T00:49:39;99782.25;;;10.89;100.00
24230;BME280;12362;50.004;8.006;2023-03-31T00:52:13;99783.00;;;10.78;100.00
24230;BME280;12362;50.004;8.006;2023-03-31T00:54:42;99768.22;;;10.78;100.00
24230;BME280;12362;50.004;8.006;2023-03-31T00:57:10;99764.63;;;10.67;100.00
24230;BME280;12362;50.004;8.006;2023-03-31T00:59:39;99758.84;;;10.62;100.00
24230;BME280;12362;50.004;8.006;2023-03-31T01:02:07;99756.44;;;10.59;100.00
24230;BME280;12362;50.004;8.006;2023-03-31T01:04:37;99739.09;;;10.59;100.00
24230;BME280;12362;50.004;8.006;2023-03-31T01:07:43;99737.41;;;10.44;100.00
24230;BME280;12362;50.004;8.006;2023-03-31T01:10:11;99728.88;;;10.28;100.00
24230;BME280;12362;50.004;8.006;2023-03-31T01:12:38;99731.25;;;10.31;100.00
24230;BME280;12362;50.004;8.006;2023-03-31T01:15:06;99727.09;;;10.29;100.00
24230;BME280;12362;50.004;8.006;2023-03-31T01:17:32;99725.81;;;10.36;100.00
24230;BME280;12362;50.004;8.006;2023-03-31T01:21:17;99714.66;;;10.20;100.00
24230;BME280;12362;50.004;8.006;2023-03-31T01:29:03;99699.22;;;10.03;100.00
24230;BME280;12362;50.004;8.006;2023-03-31T01:43:01;99682.94;;;9.86;100.00
24230;BME280;12362;50.004;8.006;2023-03-31T01:56:36;99648.03;;;9.62;100.00
24230;BME280;12362;50.004;8.006;2023-03-31T01:59:07;99645.06;;;9.54;100.00
24230;BME280;12362;50.004;8.006;2023-03-31T02:01:40;99642.09;;;9.60;100.00
24230;BME280;12362;50.004;8.006;2023-03-31T02:04:21;99634.28;;;9.46;100.00
24230;BME280;12362;50.004;8.006;2023-03-31T02:06:52;99629.00;;;9.47;100.00
24230;BME280;12362;50.004;8.006;2023-03-31T02:09:31;99635.88;;;9.48;100.00
24230;BME280;12362;50.004;8.006;2023-03-31T02:11:58;99622.53;;;9.54;100.00
24230;BME280;12362;50.004;8.006;2023-03-31T02:14:29;99628.56;;;9.55;100.00
24230;BME280;12362;50.004;8.006;2023-03-31T02:17:03;99624.53;;;9.65;100.00
24230;BME280;12362;50.004;8.006;2023-03-31T02:19:36;99612.81;;;9.73;100.00
24230;BME280;12362;50.004;8.006;2023-03-31T02:22:05;99609.09;;;9.63;100.00
24230;BME280;12362;50.004;8.006;2023-03-31T02:24:33;99613.59;;;9.60;100.00
24230;BME280;12362;50.004;8.006;2023-03-31T02:27:23;99613.63;;;9.74;100.00
24230;BME280;12362;50.004;8.006;2023-03-31T02:29:50;99605.59;;;9.78;100.00
24230;BME280;12362;50.004;8.006;2023-03-31T02:34:53;99597.91;;;9.77;100.00
24230;BME280;12362;50.004;8.006;2023-03-31T02:37:19;99595.50;;;9.74;100.00
24230;BME280;12362;50.004;8.006;2023-03-31T02:39:47;99591.06;;;9.76;100.00
24230;BME280;12362;50.004;8.006;2023-03-31T02:42:14;99578.47;;;9.70;100.00
24230;BME280;12362;50.004;8.006;2023-03-31T02:44:40;99563.19;;;9.79;100.00
24230;BME280;12362;50.004;8.006;2023-03-31T02:47:12;99551.91;;;9.80;100.00
24230;BME280;12362;50.004;8.006;2023-03-31T02:49:47;99537.09;;;9.82;100.00
24230;BME280;12362;50.004;8.006;2023-03-31T02:55:22;99497.00;;;9.88;100.00
24230;BME280;12362;50.004;8.006;2023-03-31T02:58:02;99493.03;;;9.82;100.00
24230;BME280;12362;50.004;8.006;2023-03-31T03:03:36;99474.41;;;9.90;100.00
24230;BME280;12362;50.004;8.006;2023-03-31T03:06:21;99473.19;;;9.81;100.00
24230;BME280;12362;50.004;8.006;2023-03-31T03:15:12;99494.59;;;9.85;100.00
24230;BME280;12362;50.004;8.006;2023-03-31T03:20:56;99434.13;;;9.56;100.00
24230;BME280;12362;50.004;8.006;2023-03-31T03:23:21;99468.09;;;9.52;100.00
24230;BME280;12362;50.004;8.006;2023-03-31T03:25:47;99462.16;;;9.50;100.00
24230;BME280;12362;50.004;8.006;2023-03-31T03:28:13;99458.50;;;9.68;100.00
24230;BME280;12362;50.004;8.006;2023-03-31T03:30:38;99458.97;;;9.74;100.00
24230;BME280;12362;50.004;8.006;2023-03-31T03:33:04;99448.19;;;9.66;100.00
24230;BME280;12362;50.004;8.006;2023-03-31T03:35:43;99451.34;;;9.57;100.00
24230;BME280;12362;50.004;8.006;2023-03-31T03:38:08;99447.28;;;9.67;100.00
24230;BME280;12362;50.004;8.006;2023-03-31T03:40:34;99442.66;;;9.72;100.00
24230;BME280;12362;50.004;8.006;2023-03-31T03:43:00;99412.47;;;9.57;100.00
24230;BME280;12362;50.004;8.006;2023-03-31T03:45:25;99403.97;;;9.55;100.00
24230;BME280;12362;50.004;8.006;2023-03-31T03:47:50;99411.84;;;9.54;100.00
24230;BME280;12362;50.004;8.006;2023-03-31T03:50:16;99394.25;;;9.59;100.00
24230;BME280;12362;50.004;8.006;2023-03-31T03:52:42;99403.03;;;9.56;100.00
24230;BME280;12362;50.004;8.006;2023-03-31T03:55:08;99388.03;;;9.47;100.00
24230;BME280;12362;50.004;8.006;2023-03-31T03:57:33;99385.28;;;9.50;100.00
24230;BME280;12362;50.004;8.006;2023-03-31T03:59:59;99384.81;;;9.58;100.00
24230;BME280;12362;50.004;8.006;2023-03-31T04:02:24;99389.63;;;9.50;100.00
24230;BME280;12362;50.004;8.006;2023-03-31T04:04:52;99383.59;;;9.35;100.00
24230;BME280;12362;50.004;8.006;2023-03-31T04:07:18;99387.22;;;9.33;100.00
24230;BME280;12362;50.004;8.006;2023-03-31T04:09:44;99384.25;;;9.39;100.00
24230;BME280;12362;50.004;8.006;2023-03-31T04:12:09;99381.94;;;9.48;100.00
24230;BME280;12362;50.004;8.006;2023-03-31T04:14:35;99382.50;;;9.39;100.00
24230;BME280;12362;50.004;8.006;2023-03-31T04:17:00;99371.13;;;9.42;100.00
24230;BME280;12362;50.004;8.006;2023-03-31T04:19:27;99383.31;;;9.40;100.00
24230;BME280;12362;50.004;8.006;2023-03-31T04:21:53;99388.16;;;9.46;100.00
24230;BME280;12362;50.004;8.006;2023-03-31T04:24:27;99368.88;;;9.50;100.00
24230;BME280;12362;50.004;8.006;2023-03-31T04:26:59;99350.56;;;9.39;100.00
24230;BME280;12362;50.004;8.006;2023-03-31T04:29:25;99336.34;;;9.32;100.00
24230;BME280;12362;50.004;8.006;2023-03-31T04:31:55;99335.22;;;9.36;100.00
24230;BME280;12362;50.004;8.006;2023-03-31T04:34:24;99333.06;;;9.42;100.00
24230;BME280;12362;50.004;8.006;2023-03-31T04:37:00;99346.13;;;9.55;100.00
24230;BME280;12362;50.004;8.006;2023-03-31T04:39:27;99352.41;;;9.65;100.00
24230;BME280;12362;50.004;8.006;2023-03-31T04:41:58;99350.63;;;9.65;100.00
24230;BME280;12362;50.004;8.006;2023-03-31T04:44:25;99346.13;;;9.69;100.00
24230;BME280;12362;50.004;8.006;2023-03-31T04:46:52;99357.59;;;9.79;100.00
24230;BME280;12362;50.004;8.006;2023-03-31T04:49:18;99350.38;;;9.70;100.00
24230;BME280;12362;50.004;8.006;2023-03-31T04:51:44;99346.59;;;9.61;100.00
24230;BME280;12362;50.004;8.006;2023-03-31T04:54:10;99355.56;;;9.56;100.00
24230;BME280;12362;50.004;8.006;2023-03-31T04:56:36;99346.59;;;9.61;100.00
24230;BME280;12362;50.004;8.006;2023-03-31T04:59:03;99348.25;;;9.62;100.00
24230;BME280;12362;50.004;8.006;2023-03-31T05:01:32;99340.66;;;9.59;100.00
24230;BME280;12362;50.004;8.006;2023-03-31T05:03:58;99339.91;;;9.57;100.00
24230;BME280;12362;50.004;8.006;2023-03-31T05:06:24;99338.53;;;9.66;100.00
24230;BME280;12362;50.004;8.006;2023-03-31T05:08:50;99338.53;;;9.66;100.00
24230;BME280;12362;50.004;8.006;2023-03-31T05:11:15;99327.75;;;9.72;100.00
24230;BME280;12362;50.004;8.006;2023-03-31T05:13:41;99321.19;;;9.66;100.00
24230;BME280;12362;50.004;8.006;2023-03-31T05:16:12;99318.69;;;9.79;100.00
24230;BME280;12362;50.004;8.006;2023-03-31T05:18:48;99316.41;;;9.74;100.00
24230;BME280;12362;50.004;8.006;2023-03-31T05:21:16;99296.28;;;9.78;100.00
24230;BME280;12362;50.004;8.006;2023-03-31T05:23:42;99301.84;;;9.72;100.00
24230;BME280;12362;50.004;8.006;2023-03-31T05:26:08;99289.88;;;9.83;100.00
24230;BME280;12362;50.004;8.006;2023-03-31T05:28:43;99273.06;;;9.76;100.00
24230;BME280;12362;50.004;8.006;2023-03-31T05:31:35;99273.69;;;9.80;100.00
24230;BME280;12362;50.004;8.006;2023-03-31T05:34:01;99262.47;;;9.79;100.00
24230;BME280;12362;50.004;8.006;2023-03-31T05:36:27;99254.97;;;9.89;100.00
24230;BME280;12362;50.004;8.006;2023-03-31T05:38:53;99241.25;;;9.87;100.00
24230;BME280;12362;50.004;8.006;2023-03-31T05:41:19;99227.69;;;9.95;100.00
24230;BME280;12362;50.004;8.006;2023-03-31T05:43:44;99219.91;;;9.95;100.00
24230;BME280;12362;50.004;8.006;2023-03-31T05:46:10;99201.06;;;9.93;100.00
24230;BME280;12362;50.004;8.006;2023-03-31T05:49:07;99204.88;;;9.88;100.00
24230;BME280;12362;50.004;8.006;2023-03-31T05:51:37;99192.44;;;9.93;100.00
24230;BME280;12362;50.004;8.006;2023-03-31T05:54:02;99188.19;;;9.92;100.00
24230;BME280;12362;50.004;8.006;2023-03-31T06:04:34;99146.31;;;9.98;100.00
24230;BME280;12362;50.004;8.006;2023-03-31T06:07:01;99126.06;;;9.91;100.00
24230;BME280;12362;50.004;8.006;2023-03-31T06:09:27;99134.19;;;9.98;100.00
24230;BME280;12362;50.004;8.006;2023-03-31T06:11:53;99133.34;;;9.98;100.00
24230;BME280;12362;50.004;8.006;2023-03-31T06:14:22;99126.16;;;9.89;100.00
24230;BME280;12362;50.004;8.006;2023-03-31T06:16:50;99123.38;;;9.92;100.00
24230;BME280;12362;50.004;8.006;2023-03-31T06:56:20;99084.00;;;10.24;100.00
24230;BME280;12362;50.004;8.006;2023-03-31T07:03:10;99092.81;;;10.34;100.00
24230;BME280;12362;50.004;8.006;2023-03-31T07:11:58;99068.38;;;10.62;100.00
24230;BME280;12362;50.004;8.006;2023-03-31T07:33:56;99050.25;;;11.08;100.00
24230;BME280;12362;50.004;8.006;2023-03-31T07:36:23;99052.78;;;10.97;100.00
24230;BME280;12362;50.004;8.006;2023-03-31T07:38:48;99056.44;;;10.95;100.00
24230;BME280;12362;50.004;8.006;2023-03-31T07:41:19;99064.63;;;11.01;100.00
24230;BME280;12362;50.004;8.006;2023-03-31T07:43:46;99067.41;;;12.25;100.00
24230;BME280;12362;50.004;8.006;2023-03-31T07:46:22;99057.53;;;13.05;100.00
24230;BME280;12362;50.004;8.006;2023-03-31T07:48:53;99073.31;;;12.38;100.00
24230;BME280;12362;50.004;8.006;2023-03-31T07:51:22;99076.03;;;12.14;100.00
24230;BME280;12362;50.004;8.006;2023-03-31T07:53:48;99075.31;;;12.23;100.00
24230;BME280;12362;50.004;8.006;2023-03-31T07:56:23;99071.16;;;13.40;100.00
24230;BME280;12362;50.004;8.006;2023-03-31T07:58:49;99072.91;;;13.50;100.00
24230;BME280;12362;50.004;8.006;2023-03-31T08:01:19;99070.47;;;13.27;100.00
24230;BME280;12362;50.004;8.006;2023-03-31T08:03:46;99061.34;;;13.01;100.00
24230;BME280;12362;50.004;8.006;2023-03-31T08:06:20;99061.25;;;12.91;100.00
24230;BME280;12362;50.004;8.006;2023-03-31T08:08:47;99057.78;;;12.69;100.00
24230;BME280;12362;50.004;8.006;2023-03-31T08:11:13;99052.63;;;12.36;100.00
24230;BME280;12362;50.004;8.006;2023-03-31T08:13:39;99055.00;;;12.39;100.00
24230;BME280;12362;50.004;8.006;2023-03-31T08:16:07;99036.28;;;12.23;100.00
24230;BME280;12362;50.004;8.006;2023-03-31T08:18:33;99031.56;;;12.28;100.00
24230;BME280;12362;50.004;8.006;2023-03-31T08:20:59;99028.13;;;12.28;100.00
24230;BME280;12362;50.004;8.006;2023-03-31T08:23:25;99019.38;;;12.18;100.00
24230;BME280;12362;50.004;8.006;2023-03-31T08:25:51;99023.63;;;12.30;100.00
24230;BME280;12362;50.004;8.006;2023-03-31T08:28:16;99030.50;;;12.42;100.00
24230;BME280;12362;50.004;8.006;2023-03-31T08:30:42;99027.28;;;12.60;100.00
24230;BME280;12362;50.004;8.006;2023-03-31T08:33:08;99022.41;;;12.67;100.00
24230;BME280;12362;50.004;8.006;2023-03-31T08:35:34;99021.66;;;12.86;100.00
24230;BME280;12362;50.004;8.006;2023-03-31T08:37:59;99013.25;;;13.57;100.00
24230;BME280;12362;50.004;8.006;2023-03-31T08:40:28;99001.13;;;13.96;100.00
24230;BME280;12362;50.004;8.006;2023-03-31T08:42:57;98999.97;;;14.79;100.00
24230;BME280;12362;50.004;8.006;2023-03-31T08:45:32;98979.09;;;15.26;100.00
24230;BME280;12362;50.004;8.006;2023-03-31T08:51:41;98960.03;;;14.86;100.00
24230;BME280;12362;50.004;8.006;2023-03-31T08:54:38;98959.88;;;14.69;100.00
24230;BME280;12362;50.004;8.006;2023-03-31T08:57:03;98953.59;;;14.71;100.00
24230;BME280;12362;50.004;8.006;2023-03-31T08:59:34;98948.94;;;15.13;100.00
24230;BME280;12362;50.004;8.006;2023-03-31T09:07:47;98962.50;;;14.59;100.00
24230;BME280;12362;50.004;8.006;2023-03-31T09:10:31;98936.50;;;15.62;100.00
24230;BME280;12362;50.004;8.006;2023-03-31T09:15:42;98947.97;;;15.14;100.00
24230;BME280;12362;50.004;8.006;2023-03-31T09:18:32;98944.25;;;14.97;100.00
24230;BME280;12362;50.004;8.006;2023-03-31T09:23:54;98940.91;;;14.57;100.00
24230;BME280;12362;50.004;8.006;2023-03-31T09:26:30;98935.28;;;14.13;100.00
24230;BME280;12362;50.004;8.006;2023-03-31T09:29:01;98937.66;;;14.16;100.00
24230;BME280;12362;50.004;8.006;2023-03-31T09:31:29;98918.00;;;13.92;100.00
24230;BME280;12362;50.004;8.006;2023-03-31T09:34:00;98918.00;;;13.92;100.00
24230;BME280;12362;50.004;8.006;2023-03-31T09:36:26;98926.28;;;13.67;100.00
24230;BME280;12362;50.004;8.006;2023-03-31T09:38:53;98915.31;;;13.73;100.00
24230;BME280;12362;50.004;8.006;2023-03-31T09:41:19;98901.72;;;13.69;100.00
24230;BME280;12362;50.004;8.006;2023-03-31T09:43:46;98890.84;;;13.94;100.00
24230;BME280;12362;50.004;8.006;2023-03-31T09:46:51;98892.19;;;13.98;100.00
24230;BME280;12362;50.004;8.006;2023-03-31T09:49:46;98908.69;;;13.69;100.00
24230;BME280;12362;50.004;8.006;2023-03-31T09:54:54;98959.19;;;13.38;100.00
24230;BME280;12362;50.004;8.006;2023-03-31T09:57:32;98938.03;;;13.00;100.00
24230;BME280;12362;50.004;8.006;2023-03-31T10:02:51;98938.53;;;12.52;100.00
24230;BME280;12362;50.004;8.006;2023-03-31T10:05:32;98946.38;;;12.41;100.00
24230;BME280;12362;50.004;8.006;2023-03-31T10:16:21;98956.00;;;11.75;100.00
24230;BME280;12362;50.004;8.006;2023-03-31T10:18:47;98948.91;;;11.66;100.00
24230;BME280;12362;50.004;8.006;2023-03-31T10:23:50;98931.75;;;12.07;100.00
24230;BME280;12362;50.004;8.006;2023-03-31T10:26:26;98916.94;;;12.19;100.00
24230;BME280;12362;50.004;8.006;2023-03-31T10:28:53;98907.63;;;12.59;100.00
24230;BME280;12362;50.004;8.006;2023-03-31T10:31:26;98900.41;;;12.62;100.00
24230;BME280;12362;50.004;8.006;2023-03-31T10:33:58;98896.91;;;13.24;100.00
24230;BME280;12362;50.004;8.006;2023-03-31T10:36:30;98873.19;;;13.77;100.00
24230;BME280;12362;50.004;8.006;2023-03-31T10:38:57;98870.91;;;14.33;100.00
24230;BME280;12362;50.004;8.006;2023-03-31T10:41:28;98859.38;;;14.63;100.00
24230;BME280;12362;50.004;8.006;2023-03-31T10:43:56;98854.41;;;14.98;100.00
24230;BME280;12362;50.004;8.006;2023-03-31T10:46:49;98838.66;;;15.36;100.00
24230;BME280;12362;50.004;8.006;2023-03-31T10:49:23;98832.72;;;15.80;100.00
24230;BME280;12362;50.004;8.006;2023-03-31T10:51:57;98822.50;;;16.65;100.00
24230;BME280;12362;50.004;8.006;2023-03-31T11:06:37;98837.22;;;15.05;100.00
24230;BME280;12362;50.004;8.006;2023-03-31T11:17:32;98865.41;;;13.87;100.00
24230;BME280;12362;50.004;8.006;2023-03-31T11:23:41;98862.16;;;13.35;100.00
24230;BME280;12362;50.004;8.006;2023-03-31T11:41:12;98831.03;;;14.31;100.00
24230;BME280;12362;50.004;8.006;2023-03-31T11:43:55;98836.56;;;14.47;100.00
24230;BME280;12362;50.004;8.006;2023-03-31T11:49:37;98837.97;;;14.02;100.00
24230;BME280;12362;50.004;8.006;2023-03-31T11:52:22;98860.97;;;13.78;100.00
24230;BME280;12362;50.004;8.006;2023-03-31T11:55:03;98830.63;;;13.38;100.00
24230;BME280;12362;50.004;8.006;2023-03-31T12:02:51;98851.28;;;13.09;100.00
24230;BME280;12362;50.004;8.006;2023-03-31T12:05:43;98841.84;;;13.08;100.00
24230;BME280;12362;50.004;8.006;2023-03-31T14:06:49;98649.19;;;17.84;100.00
24230;BME280;12362;50.004;8.006;2023-03-31T14:09:28;98655.44;;;16.67;100.00
24230;BME280;12362;50.004;8.006;2023-03-31T14:12:00;98644.22;;;16.49;100.00
24230;BME280;12362;50.004;8.006;2023-03-31T14:14:26;98651.94;;;16.34;100.00
24230;BME280;12362;50.004;8.006;2023-03-31T14:16:59;98656.94;;;16.27;100.00
24230;BME280;12362;50.004;8.006;2023-03-31T14:20:17;98654.56;;;16.16;100.00
24230;BME280;12362;50.004;8.006;2023-03-31T14:32:39;98758.06;;;14.57;100.00
24230;BME280;12362;50.004;8.006;2023-03-31T14:35:45;98744.88;;;13.54;100.00
24230;BME280;12362;50.004;8.006;2023-03-31T14:39:24;98760.28;;;12.76;100.00
24230;BME280;12362;50.004;8.006;2023-03-31T14:42:36;98753.16;;;12.38;100.00
24230;BME280;12362;50.004;8.006;2023-03-31T14:45:23;98740.44;;;12.55;100.00
24230;BME280;12362;50.004;8.006;2023-03-31T14:51:41;98731.63;;;12.76;100.00
24230;BME280;12362;50.004;8.006;2023-03-31T14:54:45;98732.84;;;12.72;100.00
24230;BME280;12362;50.004;8.006;2023-03-31T14:57:51;98738.91;;;13.03;100.00
24230;BME280;12362;50.004;8.006;2023-03-31T15:00:49;98727.44;;;13.15;100.00
24230;BME280;12362;50.004;8.006;2023-03-31T15:03:38;98733.38;;;13.17;100.00
24230;BME280;12362;50.004;8.006;2023-03-31T15:06:35;98726.16;;;13.30;100.00
24230;BME280;12362;50.004;8.006;2023-03-31T15:09:32;98724.56;;;13.48;100.00
24230;BME280;12362;50.004;8.006;2023-03-31T15:12:29;98724.38;;;14.07;100.00
24230;BME280;12362;50.004;8.006;2023-03-31T15:15:05;98716.56;;;14.17;100.00
24230;BME280;12362;50.004;8.006;2023-03-31T15:17:37;98717.66;;;14.14;100.00
24230;BME280;12362;50.004;8.006;2023-03-31T15:20:36;98710.22;;;14.10;100.00
24230;BME280;12362;50.004;8.006;2023-03-31T15:23:18;98702.56;;;14.18;100.00
24230;BME280;12362;50.004;8.006;2023-03-31T15:26:00;98698.56;;;14.04;100.00
24230;BME280;12362;50.004;8.006;2023-03-31T15:28:31;98706.00;;;14.18;100.00
24230;BME280;12362;50.004;8.006;2023-03-31T15:31:02;98703.63;;;14.06;100.00
24230;BME280;12362;50.004;8.006;2023-03-31T15:33:32;98697.31;;;14.08;100.00
24230;BME280;12362;50.004;8.006;2023-03-31T15:36:02;98707.09;;;14.16;100.00
24230;BME280;12362;50.004;8.006;2023-03-31T15:38:28;98696.75;;;14.05;100.00
24230;BME280;12362;50.004;8.006;2023-03-31T15:49:46;98715.97;;;13.75;100.00
24230;BME280;12362;50.004;8.006;2023-03-31T15:52:27;98724.88;;;13.73;100.00
24230;BME280;12362;50.004;8.006;2023-03-31T15:54:54;98729.97;;;13.84;100.00
24230;BME280;12362;50.004;8.006;2023-03-31T18:26:44;98793.00;;;12.18;100.00
24230;BME280;12362;50.004;8.006;2023-03-31T18:29:39;98798.00;;;12.10;100.00
24230;BME280;12362;50.004;8.006;2023-03-31T18:36:24;98799.09;;;11.85;100.00
24230;BME280;12362;50.004;8.006;2023-03-31T18:39:14;98784.81;;;11.80;100.00
24230;BME280;12362;50.004;8.006;2023-03-31T18:41:45;98802.22;;;11.79;100.00
24230;BME280;12362;50.004;8.006;2023-03-31T18:44:22;98797.94;;;11.78;100.00
24230;BME280;12362;50.004;8.006;2023-03-31T18:46:51;98812.25;;;11.84;100.00
24230;BME280;12362;50.004;8.006;2023-03-31T18:49:17;98799.75;;;11.78;100.00
24230;BME280;12362;50.004;8.006;2023-03-31T18:51:46;98806.84;;;11.76;100.00
24230;BME280;12362;50.004;8.006;2023-03-31T18:54:13;98811.31;;;11.74;100.00
24230;BME280;12362;50.004;8.006;2023-03-31T18:56:38;98823.47;;;11.74;100.00
24230;BME280;12362;50.004;8.006;2023-03-31T18:59:04;98808.81;;;11.73;100.00
24230;BME280;12362;50.004;8.006;2023-03-31T19:01:30;98817.22;;;11.76;100.00
24230;BME280;12362;50.004;8.006;2023-03-31T19:04:09;98813.78;;;11.76;100.00
24230;BME280;12362;50.004;8.006;2023-03-31T19:06:37;98806.00;;;11.76;100.00
24230;BME280;12362;50.004;8.006;2023-03-31T19:09:06;98817.09;;;11.77;100.00
24230;BME280;12362;50.004;8.006;2023-03-31T19:11:38;98814.38;;;11.68;100.00
24230;BME280;12362;50.004;8.006;2023-03-31T19:14:07;98824.09;;;11.66;100.00
24230;BME280;12362;50.004;8.006;2023-03-31T19:16:32;98819.00;;;11.65;100.00
24230;BME280;12362;50.004;8.006;2023-03-31T19:19:05;98817.94;;;11.67;100.00
24230;BME280;12362;50.004;8.006;2023-03-31T19:21:53;98821.34;;;11.78;100.00
24230;BME280;12362;50.004;8.006;2023-03-31T19:31:32;98837.19;;;11.65;100.00
24230;BME280;12362;50.004;8.006;2023-03-31T19:34:12;98834.72;;;11.63;100.00
24230;BME280;12362;50.004;8.006;2023-03-31T19:36:41;98837.31;;;11.52;100.00
24230;BME280;12362;50.004;8.006;2023-03-31T19:39:07;98838.00;;;11.43;100.00
24230;BME280;12362;50.004;8.006;2023-03-31T19:41:33;98835.66;;;11.40;100.00
24230;BME280;12362;50.004;8.006;2023-03-31T19:44:07;98838.34;;;11.39;100.00
24230;BME280;12362;50.004;8.006;2023-03-31T19:46:33;98831.63;;;11.36;100.00
24230;BME280;12362;50.004;8.006;2023-03-31T19:48:58;98824.91;;;11.34;100.00
24230;BME280;12362;50.004;8.006;2023-03-31T19:59:52;98821.81;;;11.18;100.00
24230;BME280;12362;50.004;8.006;2023-03-31T20:02:18;98823.81;;;11.03;100.00
24230;BME280;12362;50.004;8.006;2023-03-31T20:04:43;98823.81;;;11.03;100.00
24230;BME280;12362;50.004;8.006;2023-03-31T20:07:09;98825.56;;;11.03;100.00
24230;BME280;12362;50.004;8.006;2023-03-31T20:09:35;98828.06;;;11.04;100.00
24230;BME280;12362;50.004;8.006;2023-03-31T20:12:03;98822.38;;;11.10;100.00
24230;BME280;12362;50.004;8.006;2023-03-31T20:14:29;98826.88;;;11.08;100.00
24230;BME280;12362;50.004;8.006;2023-03-31T20:17:04;98828.88;;;11.05;100.00
24230;BME280;12362;50.004;8.006;2023-03-31T20:19:32;98828.66;;;11.08;100.00
24230;BME280;12362;50.004;8.006;2023-03-31T20:22:00;98820.50;;;11.01;100.00
24230;BME280;12362;50.004;8.006;2023-03-31T20:24:26;98815.28;;;11.01;100.00
24230;BME280;12362;50.004;8.006;2023-03-31T20:26:52;98821.22;;;11.03;100.00
24230;BME280;12362;50.004;8.006;2023-03-31T20:29:18;98821.22;;;11.03;100.00
24230;BME280;12362;50.004;8.006;2023-03-31T20:31:44;98828.28;;;11.01;100.00
24230;BME280;12362;50.004;8.006;2023-03-31T20:34:17;98830.53;;;11.06;100.00
24230;BME280;12362;50.004;8.006;2023-03-31T20:36:45;98839.63;;;11.11;100.00
24230;BME280;12362;50.004;8.006;2023-03-31T20:39:14;98829.25;;;11.11;100.00
24230;BME280;12362;50.004;8.006;2023-03-31T20:41:40;98825.81;;;11.11;100.00
24230;BME280;12362;50.004;8.006;2023-03-31T20:44:07;98837.41;;;11.18;100.00
24230;BME280;12362;50.004;8.006;2023-03-31T20:46:35;98830.91;;;11.12;100.00
24230;BME280;12362;50.004;8.006;2023-03-31T20:49:16;98834.22;;;11.14;100.00
24230;BME280;12362;50.004;8.006;2023-03-31T20:51:42;98842.00;;;11.03;100.00
24230;BME280;12362;50.004;8.006;2023-03-31T20:54:09;98841.72;;;10.95;100.00
24230;BME280;12362;50.004;8.006;2023-03-31T20:56:39;98842.78;;;10.93;100.00
24230;BME280;12362;50.004;8.006;2023-03-31T20:59:09;98845.72;;;10.88;100.00
24230;BME280;12362;50.004;8.006;2023-03-31T21:01:35;98841.97;;;10.92;100.00
24230;BME280;12362;50.004;8.006;2023-03-31T21:04:03;98834.84;;;10.83;100.00
24230;BME280;12362;50.004;8.006;2023-03-31T21:06:36;98847.00;;;10.83;100.00
24230;BME280;12362;50.004;8.006;2023-03-31T21:09:02;98849.81;;;10.80;100.00
24230;BME280;12362;50.004;8.006;2023-03-31T21:11:27;98847.22;;;10.80;100.00
24230;BME280;12362;50.004;8.006;2023-03-31T21:13:53;98845.69;;;10.78;100.00
24230;BME280;12362;50.004;8.006;2023-03-31T21:16:20;98851.22;;;10.73;100.00
24230;BME280;12362;50.004;8.006;2023-03-31T21:18:49;98843.91;;;10.78;100.00
24230;BME280;12362;50.004;8.006;2023-03-31T21:21:17;98839.56;;;10.79;100.00
24230;BME280;12362;50.004;8.006;2023-03-31T21:23:44;98843.59;;;10.83;100.00
24230;BME280;12362;50.004;8.006;2023-03-31T21:26:13;98848.06;;;10.81;100.00
24230;BME280;12362;50.004;8.006;2023-03-31T21:28:39;98850.66;;;10.81;100.00
24230;BME280;12362;50.004;8.006;2023-03-31T21:31:10;98844.16;;;10.75;100.00
24230;BME280;12362;50.004;8.006;2023-03-31T21:33:38;98846.50;;;10.78;100.00
24230;BME280;12362;50.004;8.006;2023-03-31T21:36:05;98842.59;;;10.73;100.00
24230;BME280;12362;50.004;8.006;2023-03-31T21:38:32;98844.50;;;10.71;100.00
24230;BME280;12362;50.004;8.006;2023-03-31T21:41:04;98844.88;;;10.77;100.00
24230;BME280;12362;50.004;8.006;2023-03-31T21:43:30;98846.97;;;10.72;100.00
24230;BME280;12362;50.004;8.006;2023-03-31T21:45:56;98833.06;;;10.73;100.00
24230;BME280;12362;50.004;8.006;2023-03-31T21:48:44;98838.81;;;10.66;100.00
24230;BME280;12362;50.004;8.006;2023-03-31T21:51:11;98835.78;;;10.72;100.00